| time (UTC) | temp C | wind direction | speed KPH | gust KPH | rain 1hr cm | rain 24hr cm | rain mn cm | humidity % | barometer mb |
| 20260503175124 | 14 | 203 | 3.2 | 11.3 | 0.00 | 0.00 | 0.00 | 72 | 1013.8 |
| 20260503173622 | 14 | 136 | 3.2 | 12.9 | 0.00 | 0.00 | 0.00 | 71 | 1013.6 |
| 20260503172119 | 13 | 211 | 6.4 | 16.1 | 0.00 | 0.00 | 0.00 | 73 | 1013.6 |
| 20260503170619 | 13 | 234 | 6.4 | 16.1 | 0.00 | 0.00 | 0.00 | 74 | 1013.4 |
| 20260503150606 | 12 | 200 | 0.0 | 6.4 | 0.00 | 0.00 | 0.00 | 74 | 1012.8 |
| 20260503130543 | 12 | 114 | 1.6 | 9.7 | 0.00 | 0.00 | 0.00 | 75 | 1011.4 |
| 20260503090513 | 12 | 207 | 3.2 | 8.0 | 0.00 | 0.00 | 0.00 | 77 | 1011.7 |
| 20260503081243 | 12 | 148 | 0.0 | 0.0 | 0.00 | 0.00 | 0.00 | 77 | 1012.1 |
| 20260503072012 | 12 | 148 | 0.0 | 1.6 | 0.00 | 0.00 | 0.00 | 77 | 1012.1 |
| 20260503071244 | 12 | 148 | 0.0 | 4.8 | 0.00 | 0.00 | 0.00 | 77 | 1012.3 |
| 20260503055009 | 12 | 128 | 1.6 | 6.4 | 0.00 | 0.00 | 0.00 | 76 | 1012.7 |
| 20260503053508 | 12 | 241 | 4.8 | 14.5 | 0.00 | 0.00 | 0.00 | 76 | 1012.9 |
| 20260503052008 | 12 | 238 | 0.0 | 4.8 | 0.00 | 0.00 | 0.00 | 77 | 1012.8 |
| 20260503050508 | 12 | 244 | 4.8 | 14.5 | 0.00 | 0.00 | 0.00 | 77 | 1012.8 |
| 20260503045004 | 12 | 252 | 1.6 | 12.9 | 0.00 | 0.00 | 0.00 | 77 | 1012.7 |
| 20260503043502 | 12 | 256 | 4.8 | 19.3 | 0.00 | 0.00 | 0.00 | 76 | 1012.6 |
| 20260503041956 | 12 | 233 | 4.8 | 14.5 | 0.00 | 0.00 | 0.00 | 76 | 1012.5 |
| 20260503040458 | 12 | 255 | 1.6 | 8.0 | 0.00 | 0.00 | 0.00 | 76 | 1012.5 |
| 20260503034957 | 12 | 233 | 4.8 | 16.1 | 0.00 | 0.00 | 0.00 | 76 | 1012.3 |
| 20260503033457 | 12 | 261 | 3.2 | 12.9 | 0.00 | 0.00 | 0.00 | 76 | 1012.1 |
| 20260503031957 | 12 | 231 | 1.6 | 9.7 | 0.00 | 0.00 | 0.00 | 75 | 1011.8 |
| 20260503030454 | 12 | 237 | 1.6 | 8.0 | 0.00 | 0.00 | 0.00 | 74 | 1011.5 |
| 20260503024952 | 12 | 256 | 1.6 | 8.0 | 0.00 | 0.00 | 0.00 | 74 | 1011.4 |
| 20260503023452 | 13 | 246 | 3.2 | 14.5 | 0.00 | 0.00 | 0.00 | 73 | 1011.5 |
| 20260503021954 | 13 | 253 | 6.4 | 17.7 | 0.00 | 0.00 | 0.00 | 72 | 1011.4 |
| 20260503020446 | 13 | 243 | 6.4 | 16.1 | 0.00 | 0.00 | 0.00 | 71 | 1011.4 |
| 20260503014945 | 14 | 219 | 3.2 | 12.9 | 0.00 | 0.00 | 0.00 | 71 | 1011.4 |
| 20260503013443 | 14 | 267 | 6.4 | 20.9 | 0.00 | 0.00 | 0.00 | 70 | 1011.4 |
| 20260503011939 | 15 | 280 | 6.4 | 17.7 | 0.00 | 0.00 | 0.00 | 69 | 1011.6 |
| 20260503010437 | 15 | 273 | 4.8 | 16.1 | 0.00 | 0.00 | 0.00 | 68 | 1011.6 |
| 20260503004937 | 15 | 305 | 4.8 | 12.9 | 0.00 | 0.00 | 0.00 | 68 | 1011.6 |
| 20260503003438 | 16 | 257 | 6.4 | 20.9 | 0.00 | 0.00 | 0.00 | 67 | 1011.6 |
| 20260503001937 | 16 | 250 | 6.4 | 20.9 | 0.00 | 0.00 | 0.00 | 66 | 1011.6 |
| 20260503000438 | 16 | 282 | 8.0 | 20.9 | 0.00 | 0.00 | 0.00 | 66 | 1011.5 |
| 20260502235709 | 16 | 269 | 8.0 | 20.9 | 0.00 | 0.00 | 0.00 | 66 | 1011.7 |
| 20260502233438 | 16 | 309 | 8.0 | 17.7 | 0.00 | 0.00 | 0.00 | 66 | 1011.7 |
| 20260502231937 | 16 | 233 | 8.0 | 24.1 | 0.00 | 0.00 | 0.00 | 66 | 1012.0 |
| 20260502231208 | 17 | 230 | 8.0 | 17.7 | 0.00 | 0.00 | 0.00 | 63 | 1012.2 |
| 20260502224936 | 17 | 303 | 6.4 | 17.7 | 0.00 | 0.00 | 0.00 | 64 | 1012.3 |
| 20260502223436 | 17 | 319 | 3.2 | 17.7 | 0.00 | 0.00 | 0.00 | 63 | 1012.7 |
| 20260502221935 | 17 | 247 | 6.4 | 19.3 | 0.00 | 0.00 | 0.00 | 64 | 1012.9 |
| 20260502221207 | 17 | 226 | 8.0 | 20.9 | 0.00 | 0.00 | 0.00 | 64 | 1013.1 |
| 20260502220432 | 17 | 244 | 8.0 | 22.5 | 0.00 | 0.00 | 0.00 | 63 | 1013.0 |
| 20260502213427 | 17 | 142 | 6.4 | 20.9 | 0.00 | 0.00 | 0.00 | 65 | 1013.1 |
| 20260502211928 | 17 | 225 | 8.0 | 19.3 | 0.00 | 0.00 | 0.00 | 66 | 1013.4 |
| 20260502211154 | 16 | 211 | 6.4 | 20.9 | 0.00 | 0.00 | 0.00 | 68 | 1013.6 |
| 20260502204926 | 16 | 182 | 8.0 | 17.7 | 0.00 | 0.00 | 0.00 | 69 | 1013.7 |
| 20260502203418 | 16 | 201 | 6.4 | 19.3 | 0.00 | 0.00 | 0.00 | 69 | 1014.1 |
| 20260502201918 | 16 | 247 | 6.4 | 16.1 | 0.00 | 0.00 | 0.00 | 67 | 1014.1 |
| 20260502200418 | 16 | 141 | 4.8 | 14.5 | 0.00 | 0.00 | 0.00 | 72 | 1014.2 |
| 20260502194911 | 15 | 106 | 6.4 | 19.3 | 0.00 | 0.00 | 0.00 | 71 | 1014.2 |
| 20260502193411 | 15 | 111 | 6.4 | 19.3 | 0.00 | 0.00 | 0.00 | 72 | 1014.3 |
| 20260502192647 | 15 | 158 | 4.8 | 16.1 | 0.00 | 0.00 | 0.00 | 72 | 1014.2 |
| 20260502190411 | 15 | 207 | 3.2 | 12.9 | 0.00 | 0.00 | 0.00 | 71 | 1014.4 |
| 20260502185642 | 15 | 176 | 8.0 | 20.9 | 0.00 | 0.00 | 0.00 | 73 | 1014.3 |
| 20260502183411 | 16 | 93 | 4.8 | 16.1 | 0.00 | 0.00 | 0.00 | 71 | 1014.2 |
| 20260502181910 | 15 | 151 | 4.8 | 12.9 | 0.00 | 0.00 | 0.00 | 72 | 1014.2 |
| 20260502180408 | 16 | 187 | 0.0 | 8.0 | 0.00 | 0.00 | 0.00 | 71 | 1014.1 |